createdAt,value
2022-09-21T00:00:12.223Z,3.69
2022-09-21T00:05:15.765Z,3.58
2022-09-21T00:10:20.255Z,3.66
2022-09-21T00:15:25.255Z,3.53
2022-09-21T00:20:29.208Z,3.58
2022-09-21T00:25:32.616Z,3.50
2022-09-21T00:30:39.192Z,3.49
2022-09-21T00:35:42.637Z,3.44
2022-09-21T00:40:46.099Z,3.37
2022-09-21T00:45:56.224Z,3.34
2022-09-21T00:51:04.271Z,3.32
2022-09-21T00:56:10.553Z,3.35
2022-09-21T01:01:16.559Z,3.26
2022-09-21T01:06:22.430Z,3.18
2022-09-21T01:11:40.268Z,3.14
2022-09-21T01:16:54.106Z,3.14
2022-09-21T01:22:07.796Z,3.12
2022-09-21T01:27:36.673Z,3.05
2022-09-21T01:32:46.089Z,2.98
2022-09-21T01:37:55.534Z,2.86
2022-09-21T01:43:01.971Z,2.72
2022-09-21T01:48:07.441Z,2.93
2022-09-21T01:53:19.411Z,2.92
2022-09-21T01:58:29.980Z,2.85
2022-09-21T02:03:40.301Z,2.80
2022-09-21T02:08:44.007Z,2.80
2022-09-21T02:13:52.292Z,2.79
2022-09-21T02:19:11.278Z,2.82
2022-09-21T02:24:23.067Z,2.71
2022-09-21T02:29:33.485Z,2.68
2022-09-21T02:34:46.644Z,2.65
2022-09-21T02:40:00.471Z,2.63
2022-09-21T02:45:08.981Z,2.60
2022-09-21T02:50:21.362Z,2.55
2022-09-21T02:55:26.540Z,2.60
2022-09-21T03:00:31.144Z,2.51
2022-09-21T03:05:36.199Z,2.47
2022-09-21T03:10:40.905Z,2.50
2022-09-21T03:15:45.618Z,2.43
2022-09-21T03:20:50.586Z,2.41
2022-09-21T03:25:54.723Z,2.39
2022-09-21T03:30:58.566Z,2.44
2022-09-21T03:36:04.296Z,2.34
2022-09-21T03:41:08.240Z,2.32
2022-09-21T03:46:11.944Z,2.31
2022-09-21T03:51:16.796Z,2.25
2022-09-21T03:56:20.347Z,2.26
2022-09-21T04:01:24.310Z,2.23
2022-09-21T04:06:30.174Z,2.24
2022-09-21T04:11:34.758Z,2.21
2022-09-21T04:16:38.907Z,2.20
2022-09-21T04:21:44.748Z,2.23
2022-09-21T04:26:49.411Z,2.07
2022-09-21T04:31:52.936Z,2.12
2022-09-21T04:36:58.608Z,2.09
2022-09-21T04:42:03.475Z,2.09
2022-09-21T04:47:07.263Z,2.05
2022-09-21T04:52:16.998Z,2.02
2022-09-21T04:57:22.839Z,2.01
2022-09-21T05:02:26.621Z,1.99
2022-09-21T05:07:31.900Z,2.04
2022-09-21T05:12:40.700Z,2.09
2022-09-21T05:17:44.676Z,2.14
2022-09-21T05:22:49.769Z,2.07
2022-09-21T05:27:53.526Z,2.18
2022-09-21T05:33:03.879Z,2.26
2022-09-21T05:38:15.101Z,2.28
2022-09-21T05:43:19.405Z,2.32
2022-09-21T05:48:27.496Z,2.49
2022-09-21T05:54:05.155Z,2.57
2022-09-21T05:59:26.372Z,2.69
2022-09-21T06:04:30.733Z,2.75
2022-09-21T06:09:37.973Z,2.82
2022-09-21T06:14:44.896Z,2.89
2022-09-21T06:19:48.450Z,2.99
2022-09-21T06:24:53.745Z,3.14
2022-09-21T06:29:57.427Z,3.23
2022-09-21T06:35:01.098Z,3.50
2022-09-21T06:40:07.501Z,4.07
2022-09-21T06:45:11.519Z,4.79
2022-09-21T06:50:15.208Z,5.48
2022-09-21T06:55:20.186Z,6.28
2022-09-21T07:00:23.678Z,7.27
2022-09-21T07:05:28.012Z,7.42
2022-09-21T07:10:32.816Z,8.05
2022-09-21T07:15:36.619Z,8.10
2022-09-21T07:20:41.084Z,8.53
2022-09-21T07:25:48.952Z,8.57
2022-09-21T07:30:52.334Z,8.86
2022-09-21T07:35:57.405Z,9.37
2022-09-21T07:41:04.203Z,9.54
2022-09-21T07:46:08.158Z,10.06
2022-09-21T07:51:13.295Z,10.57
2022-09-21T07:56:20.082Z,10.72
2022-09-21T08:01:24.362Z,10.67
2022-09-21T08:06:30.444Z,11.06
2022-09-21T08:11:36.122Z,11.17
2022-09-21T08:16:40.150Z,11.40
2022-09-21T08:21:44.065Z,11.76
2022-09-21T08:26:51.641Z,12.69
2022-09-21T08:31:55.200Z,12.87
2022-09-21T08:36:58.957Z,13.38
2022-09-21T08:42:14.623Z,13.37
2022-09-21T08:47:24.046Z,13.55
2022-09-21T08:52:27.799Z,13.92
2022-09-21T08:57:35.233Z,13.91
2022-09-21T09:03:13.869Z,13.72
2022-09-21T09:08:38.409Z,14.31
2022-09-21T09:14:02.975Z,13.90
2022-09-21T09:19:18.811Z,14.15
2022-09-21T09:24:32.910Z,14.38
2022-09-21T09:29:45.267Z,14.92
2022-09-21T09:34:56.371Z,15.50
2022-09-21T09:40:02.092Z,15.68
2022-09-21T09:45:34.363Z,14.73
2022-09-21T09:50:40.606Z,14.14
2022-09-21T09:55:47.942Z,13.84
2022-09-21T10:00:57.684Z,13.62
2022-09-21T10:06:02.543Z,13.02
2022-09-21T10:11:06.903Z,13.03
2022-09-21T10:16:16.604Z,13.10
2022-09-21T10:21:23.202Z,12.99
2022-09-21T10:26:32.707Z,13.13
2022-09-21T10:31:37.649Z,13.30
2022-09-21T10:36:41.735Z,13.18
2022-09-21T10:41:50.278Z,13.16
2022-09-21T10:52:04.462Z,13.83
2022-09-21T10:57:11.283Z,14.06
2022-09-21T11:02:36.531Z,14.58
2022-09-21T11:07:46.029Z,14.89
2022-09-21T11:13:12.715Z,14.84
2022-09-21T11:18:23.338Z,14.68
2022-09-21T11:23:40.412Z,14.88
2022-09-21T11:28:50.964Z,16.00
2022-09-21T11:34:13.028Z,16.69
2022-09-21T11:39:25.683Z,16.61
2022-09-21T11:44:55.578Z,16.74
2022-09-21T11:50:33.651Z,16.56
2022-09-21T11:56:07.872Z,16.67
2022-09-21T12:01:26.078Z,16.71
2022-09-21T12:06:42.247Z,16.66
2022-09-21T12:11:55.501Z,16.30
2022-09-21T12:17:06.045Z,15.33
2022-09-21T12:22:17.676Z,15.63
2022-09-21T12:27:28.815Z,15.39
2022-09-21T12:32:47.481Z,15.89
2022-09-21T12:37:57.703Z,15.76
2022-09-21T12:43:09.611Z,14.97
2022-09-21T12:48:31.038Z,15.28
2022-09-21T12:53:41.343Z,15.00
2022-09-21T12:58:55.562Z,14.73
2022-09-21T13:04:29.938Z,14.16
2022-09-21T13:09:40.146Z,15.14
2022-09-21T13:14:48.226Z,16.04
2022-09-21T13:20:02.363Z,15.64
2022-09-21T13:25:19.714Z,15.88
2022-09-21T13:30:33.287Z,15.77
2022-09-21T13:36:02.384Z,16.27
2022-09-21T13:41:51.921Z,16.66
2022-09-21T13:46:56.070Z,16.30
2022-09-21T13:52:03.312Z,16.75
2022-09-21T13:57:19.420Z,16.37
2022-09-21T14:02:32.619Z,16.42
2022-09-21T14:07:36.856Z,15.80
2022-09-21T14:12:45.176Z,15.72
2022-09-21T14:18:18.155Z,15.47
2022-09-21T14:23:31.048Z,15.31
2022-09-21T14:28:40.366Z,14.64
2022-09-21T14:33:48.311Z,14.59
2022-09-21T14:38:58.463Z,14.52
2022-09-21T14:44:04.548Z,14.20
2022-09-21T14:49:28.047Z,13.96
2022-09-21T14:54:43.737Z,13.87
2022-09-21T15:00:02.898Z,13.73
2022-09-21T15:05:17.062Z,13.65
2022-09-21T15:10:43.573Z,13.85
2022-09-21T15:16:01.354Z,14.15
2022-09-21T15:21:05.760Z,14.34
2022-09-21T15:26:11.546Z,14.42
2022-09-21T15:31:17.236Z,14.19
2022-09-21T15:36:27.162Z,14.11
2022-09-21T15:41:43.444Z,14.36
2022-09-21T15:47:01.275Z,14.31
2022-09-21T15:52:12.988Z,14.09
2022-09-21T15:57:39.053Z,14.09
2022-09-21T16:02:56.237Z,13.60
2022-09-21T16:08:12.309Z,13.45
2022-09-21T16:13:38.537Z,12.96
2022-09-21T16:18:49.253Z,12.67
2022-09-21T16:23:56.169Z,12.53
2022-09-21T16:29:19.925Z,12.09
2022-09-21T16:34:37.029Z,11.85
2022-09-21T16:39:42.238Z,11.64
2022-09-21T16:44:46.016Z,11.19
2022-09-21T16:49:51.741Z,10.94
2022-09-21T16:54:56.564Z,10.75
2022-09-21T17:00:00.229Z,10.51
2022-09-21T17:05:05.543Z,10.19
2022-09-21T17:10:14.083Z,9.84
2022-09-21T17:15:17.656Z,9.96
2022-09-21T17:20:32.380Z,9.94
2022-09-21T17:25:37.189Z,9.55
2022-09-21T17:30:43.204Z,9.46
2022-09-21T17:35:50.867Z,9.24
2022-09-21T17:40:56.759Z,9.17
2022-09-21T17:46:08.400Z,8.99
2022-09-21T17:51:34.301Z,8.72
2022-09-21T17:56:48.168Z,8.60
2022-09-21T18:01:52.762Z,8.44
2022-09-21T18:07:00.616Z,8.37
2022-09-21T18:12:37.430Z,8.09
2022-09-21T18:17:58.826Z,8.05
2022-09-21T18:23:18.052Z,7.82
2022-09-21T18:28:40.294Z,7.62
2022-09-21T18:33:52.428Z,7.66
2022-09-21T18:39:10.722Z,7.53
2022-09-21T18:44:21.353Z,7.44
2022-09-21T18:49:56.365Z,7.34
2022-09-21T18:55:02.203Z,7.23
2022-09-21T19:00:08.413Z,7.18
2022-09-21T19:05:13.764Z,6.99
2022-09-21T19:10:26.812Z,6.85
2022-09-21T19:15:59.745Z,6.87
2022-09-21T19:21:15.098Z,6.58
2022-09-21T19:26:28.478Z,6.51
2022-09-21T19:31:33.106Z,6.54
2022-09-21T19:36:36.690Z,6.38
2022-09-21T19:41:54.550Z,6.29
2022-09-21T19:47:06.675Z,6.21
2022-09-21T19:52:14.765Z,6.20
2022-09-21T19:57:39.530Z,6.11
2022-09-21T20:02:54.095Z,5.92
2022-09-21T20:08:04.988Z,5.96
2022-09-21T20:13:21.947Z,5.96
2022-09-21T20:18:30.677Z,5.77
2022-09-21T20:23:36.162Z,5.63
2022-09-21T20:28:41.670Z,5.58
2022-09-21T20:33:45.178Z,5.53
2022-09-21T20:38:48.855Z,5.45
2022-09-21T20:43:55.392Z,5.43
2022-09-21T20:49:04.611Z,5.37
2022-09-21T20:54:08.517Z,5.33
2022-09-21T20:59:13.471Z,5.22
2022-09-21T21:04:16.942Z,5.13
2022-09-21T21:09:20.853Z,5.05
2022-09-21T21:14:27.970Z,5.02
2022-09-21T21:19:32.840Z,4.93
2022-09-21T21:24:42.097Z,4.89
2022-09-21T21:29:50.296Z,4.77
2022-09-21T21:34:54.705Z,4.73
2022-09-21T21:39:58.518Z,4.64
2022-09-21T21:45:03.301Z,4.63
2022-09-21T21:50:07.632Z,4.67
2022-09-21T21:55:11.181Z,4.68
2022-09-21T22:00:17.554Z,4.57
2022-09-21T22:05:21.099Z,4.54
2022-09-21T22:10:25.363Z,4.53
2022-09-21T22:15:31.792Z,4.51
2022-09-21T22:20:35.330Z,4.41
2022-09-21T22:25:39.373Z,4.33
2022-09-21T22:30:50.033Z,4.36
2022-09-21T22:35:53.489Z,4.38
2022-09-21T22:40:56.970Z,4.28
2022-09-21T22:46:02.595Z,4.19
2022-09-21T22:51:06.654Z,4.13
2022-09-21T22:56:11.802Z,4.06
2022-09-21T23:01:19.846Z,4.03
2022-09-21T23:06:26.484Z,4.01
2022-09-21T23:11:33.143Z,3.87
2022-09-21T23:16:38.156Z,3.83
2022-09-21T23:21:42.035Z,3.82
2022-09-21T23:26:45.699Z,3.76
2022-09-21T23:31:50.623Z,3.71
2022-09-21T23:36:54.479Z,3.70
2022-09-21T23:41:57.907Z,3.63
2022-09-21T23:47:02.815Z,3.57
2022-09-21T23:52:06.476Z,3.49
2022-09-21T23:57:09.753Z,3.57
